Weather at Silgadi Doti Airport

Public forecast

Using degrees Celsius for public forecast. Weather courtesy of forecast.io.

Closest aviation weather report (METAR) to Silgadi Doti Airport

Report is more than 6 hours old.

Closest report is Pantnagar Airport, 77.9 nm (144.3 km) W.

2024/05/20 11:00 (retrieved 15 hours ago)

VIPT 201100Z 29005KT 5000 HZ FEW030 38/21 Q0999

Closest aviation forecast (TAF) to Silgadi Doti Airport

Forecast is more than 12 hours old.

Closest forecast is Pantnagar Airport, 77.9 nm (144.3 km) W.

2024/05/20 12:00 (retrieved 14 hours ago)

TAF VIPT 201100Z 2012/2118 17005KT 5000 HZ NSC BECMG 2018/2020 07005KT 3000 HZ SCT100 BECMG 2100/2102 09010KT 3000 HZ NSC BECMG 2104/2106 11008G18KT 5000 HZ FEW080 BECMG 2108/2110 25010G20KT 6000 FEW035 SCT090 BECMG 2115/2117 09010KT 4000 HZ